createdAt,value
2019-04-06T00:00:42.429Z,125.60
2019-04-06T00:02:23.349Z,139.28
2019-04-06T00:04:05.814Z,112.62
2019-04-06T00:05:45.407Z,102.60
2019-04-06T00:07:30.057Z,125.02
2019-04-06T00:09:12.378Z,117.10
2019-04-06T00:10:55.279Z,115.47
2019-04-06T00:12:38.231Z,108.97
2019-04-06T00:14:21.078Z,114.25
2019-04-06T00:16:03.012Z,110.05
2019-04-06T00:17:44.657Z,102.20
2019-04-06T00:19:28.350Z,113.80
2019-04-06T00:21:12.672Z,139.70
2019-04-06T00:22:55.597Z,123.07
2019-04-06T00:24:36.005Z,125.33
2019-04-06T00:26:39.113Z,135.20
2019-04-06T00:28:19.688Z,106.15
2019-04-06T00:30:02.075Z,107.65
2019-04-06T00:31:55.561Z,90.77
2019-04-06T00:33:38.034Z,95.77
2019-04-06T00:35:21.997Z,97.62
2019-04-06T00:37:03.037Z,113.30
2019-04-06T00:38:43.898Z,152.93
2019-04-06T00:40:27.379Z,159.45
2019-04-06T00:42:07.866Z,185.73
2019-04-06T00:43:50.778Z,148.85
2019-04-06T00:45:31.991Z,143.30
2019-04-06T00:47:12.693Z,120.92
2019-04-06T00:48:56.505Z,110.65
2019-04-06T00:50:36.867Z,118.75
2019-04-06T00:52:19.616Z,138.18
2019-04-06T00:54:02.751Z,122.05
2019-04-06T00:55:43.096Z,103.30
2019-04-06T00:57:25.082Z,104.17
2019-04-06T00:59:05.293Z,188.42
2019-04-06T01:00:47.005Z,158.53
2019-04-06T01:02:28.914Z,264.52
2019-04-06T01:04:10.843Z,163.57
2019-04-06T01:05:53.686Z,116.30
2019-04-06T01:09:17.504Z,118.13
2019-04-06T01:10:59.575Z,114.60
2019-04-06T01:12:36.900Z,113.45
2019-04-06T01:14:18.648Z,119.80
2019-04-06T01:16:03.221Z,114.32
2019-04-06T01:17:44.403Z,110.90
2019-04-06T01:19:26.727Z,107.10
2019-04-06T01:21:09.498Z,103.72
2019-04-06T01:22:49.747Z,119.17
2019-04-06T01:24:33.228Z,113.15
2019-04-06T01:26:12.572Z,112.05
2019-04-06T01:27:51.405Z,130.72
2019-04-06T01:29:35.037Z,128.18
2019-04-06T01:31:13.209Z,159.43
2019-04-06T01:32:53.144Z,119.37
2019-04-06T01:34:31.790Z,124.33
2019-04-06T01:36:13.578Z,123.78
2019-04-06T01:37:54.628Z,115.05
2019-04-06T01:39:34.749Z,115.95
2019-04-06T01:41:12.578Z,114.85
2019-04-06T01:42:51.962Z,120.00
2019-04-06T01:44:32.032Z,112.03
2019-04-06T01:46:11.767Z,107.97
2019-04-06T01:47:51.051Z,109.95
2019-04-06T01:49:31.715Z,126.33
2019-04-06T01:51:12.435Z,112.47
2019-04-06T01:52:51.674Z,107.75
2019-04-06T01:54:30.961Z,143.17
2019-04-06T01:56:18.296Z,107.47
2019-04-06T01:57:51.254Z,108.37
2019-04-06T01:59:32.824Z,110.30
2019-04-06T02:01:13.720Z,117.28
2019-04-06T02:02:54.207Z,109.20
2019-04-06T02:04:36.173Z,231.70
2019-04-06T02:06:15.579Z,142.20
2019-04-06T02:07:57.255Z,141.85
2019-04-06T02:09:37.588Z,120.57
2019-04-06T02:11:17.728Z,117.53
2019-04-06T02:13:01.117Z,129.43
2019-04-06T02:14:42.275Z,143.05
2019-04-06T02:16:21.664Z,159.37
2019-04-06T02:18:02.377Z,124.10
2019-04-06T02:19:42.691Z,112.15
2019-04-06T02:21:21.740Z,115.85
2019-04-06T02:22:59.160Z,112.28
2019-04-06T02:24:37.545Z,109.33
2019-04-06T02:26:29.773Z,150.57
2019-04-06T02:27:59.927Z,132.45
2019-04-06T02:29:41.746Z,129.20
2019-04-06T02:31:40.980Z,138.22
2019-04-06T02:33:33.565Z,112.90
2019-04-06T02:35:23.198Z,106.55
2019-04-06T02:37:20.996Z,117.53
2019-04-06T02:39:01.836Z,112.87
2019-04-06T02:40:43.944Z,128.68
2019-04-06T02:42:40.818Z,121.70
2019-04-06T02:44:19.104Z,124.03
2019-04-06T02:45:59.807Z,108.97
2019-04-06T02:47:38.683Z,117.00
2019-04-06T02:49:16.516Z,130.10
2019-04-06T02:50:57.797Z,129.17
2019-04-06T02:52:38.545Z,117.70
2019-04-06T02:54:18.333Z,135.47
2019-04-06T02:55:57.733Z,128.47
2019-04-06T02:57:38.050Z,116.03
2019-04-06T02:59:17.506Z,123.43
2019-04-06T03:00:55.729Z,115.67
2019-04-06T03:02:36.237Z,134.10
2019-04-06T03:04:16.165Z,119.83
2019-04-06T03:05:53.900Z,125.43
2019-04-06T03:07:32.971Z,117.40
2019-04-06T03:09:11.712Z,119.67
2019-04-06T03:10:52.615Z,115.80
2019-04-06T03:12:31.927Z,111.15
2019-04-06T03:14:10.394Z,123.57
2019-04-06T03:15:49.653Z,110.03
2019-04-06T03:17:31.822Z,117.03
2019-04-06T03:19:12.135Z,113.27
2019-04-06T03:20:51.077Z,111.77
2019-04-06T03:22:30.587Z,117.10
2019-04-06T03:24:08.904Z,113.80
2019-04-06T03:25:48.083Z,124.67
2019-04-06T03:27:26.755Z,116.20
2019-04-06T03:29:05.262Z,121.57
2019-04-06T03:30:42.646Z,118.73
2019-04-06T03:32:22.485Z,125.57
2019-04-06T03:34:00.733Z,122.70
2019-04-06T03:35:45.932Z,122.87
2019-04-06T03:37:18.877Z,127.70
2019-04-06T03:38:56.670Z,127.30
2019-04-06T03:40:35.712Z,131.20
2019-04-06T03:42:16.294Z,120.13
2019-04-06T03:43:54.106Z,122.40
2019-04-06T03:45:32.087Z,139.13
2019-04-06T03:47:11.457Z,126.30
2019-04-06T03:48:52.376Z,128.90
2019-04-06T03:50:32.787Z,131.78
2019-04-06T03:52:11.149Z,134.83
2019-04-06T03:53:50.256Z,130.23
2019-04-06T03:55:28.109Z,121.90
2019-04-06T03:57:14.865Z,130.33
2019-04-06T03:58:52.112Z,113.32
2019-04-06T04:00:30.590Z,122.47
2019-04-06T04:02:09.611Z,125.95
2019-04-06T04:03:48.129Z,129.23
2019-04-06T04:05:27.730Z,132.65
2019-04-06T04:07:07.344Z,121.80
2019-04-06T04:08:48.929Z,136.20
2019-04-06T04:10:35.298Z,130.82
2019-04-06T04:12:14.358Z,151.07
2019-04-06T04:13:53.006Z,133.80
2019-04-06T04:15:31.227Z,130.07
2019-04-06T04:17:11.070Z,133.47
2019-04-06T04:18:52.197Z,146.65
2019-04-06T04:20:30.773Z,139.12
2019-04-06T04:22:10.342Z,149.00
2019-04-06T04:23:48.214Z,130.03
2019-04-06T04:25:28.380Z,134.57
2019-04-06T04:27:07.865Z,135.55
2019-04-06T04:28:48.961Z,138.43
2019-04-06T04:30:33.350Z,140.73
2019-04-06T04:32:09.203Z,127.75
2019-04-06T04:33:50.486Z,133.27
2019-04-06T04:35:29.739Z,135.03
2019-04-06T04:37:09.894Z,120.13
2019-04-06T04:38:50.687Z,138.28
2019-04-06T04:40:28.702Z,139.95
2019-04-06T04:42:08.814Z,143.25
2019-04-06T04:43:46.489Z,142.47
2019-04-06T04:45:26.662Z,155.63
2019-04-06T04:47:13.243Z,148.57
2019-04-06T04:48:54.401Z,129.53
2019-04-06T04:50:33.991Z,145.38
2019-04-06T04:52:14.260Z,147.70
2019-04-06T04:53:53.324Z,159.35
2019-04-06T04:55:36.737Z,181.20
2019-04-06T04:57:16.245Z,138.62
2019-04-06T04:58:58.333Z,129.90
2019-04-06T05:00:41.928Z,134.37
2019-04-06T05:02:21.845Z,125.87
2019-04-06T05:04:03.107Z,144.28
2019-04-06T05:05:45.283Z,125.25
2019-04-06T05:07:31.135Z,157.93
2019-04-06T05:09:16.051Z,147.37
2019-04-06T05:11:04.219Z,142.03
2019-04-06T05:12:43.944Z,139.90
2019-04-06T05:15:04.010Z,135.65
2019-04-06T05:16:46.590Z,164.35
2019-04-06T05:18:27.674Z,166.25
2019-04-06T05:20:09.147Z,135.88
2019-04-06T05:21:49.688Z,133.03
2019-04-06T05:23:31.024Z,135.78
2019-04-06T05:25:11.456Z,132.03
2019-04-06T05:26:51.021Z,124.92
2019-04-06T05:28:30.103Z,140.15
2019-04-06T05:30:10.441Z,132.63
2019-04-06T05:31:49.070Z,127.65
2019-04-06T05:33:28.804Z,183.05
2019-04-06T05:35:07.724Z,170.65
2019-04-06T05:36:49.280Z,185.20
2019-04-06T05:38:29.334Z,213.37
2019-04-06T05:40:09.774Z,144.25
2019-04-06T05:41:50.426Z,222.42
2019-04-06T05:43:30.156Z,128.70
2019-04-06T05:45:16.054Z,267.95
2019-04-06T05:46:58.687Z,256.38
2019-04-06T05:48:37.920Z,261.20
2019-04-06T05:50:17.552Z,259.12
2019-04-06T05:51:55.990Z,243.33
2019-04-06T05:53:40.262Z,160.25
2019-04-06T05:55:18.754Z,183.15
2019-04-06T05:56:58.514Z,163.82
2019-04-06T05:58:39.894Z,174.53
2019-04-06T06:00:20.322Z,187.70
2019-04-06T06:02:01.067Z,162.65
2019-04-06T06:03:41.586Z,150.55
2019-04-06T06:05:19.809Z,157.55
2019-04-06T06:09:08.250Z,132.95
2019-04-06T06:10:48.057Z,130.18
2019-04-06T06:12:27.494Z,98.42
2019-04-06T06:14:10.115Z,117.10
2019-04-06T06:15:53.109Z,124.97
2019-04-06T06:17:32.109Z,103.53
2019-04-06T06:19:13.234Z,104.15
2019-04-06T06:20:59.266Z,132.00
2019-04-06T06:22:39.618Z,80.28
2019-04-06T06:24:20.481Z,71.75
2019-04-06T06:25:59.206Z,83.47
2019-04-06T06:27:39.610Z,99.35
2019-04-06T06:29:20.225Z,114.03
2019-04-06T06:30:58.871Z,65.22
2019-04-06T06:32:39.512Z,64.35
2019-04-06T06:34:18.864Z,79.95
2019-04-06T06:35:58.693Z,66.33
2019-04-06T06:37:37.284Z,72.97
2019-04-06T06:39:18.468Z,54.20
2019-04-06T06:41:00.105Z,91.53
2019-04-06T06:42:38.388Z,56.25
2019-04-06T06:44:18.363Z,56.70
2019-04-06T06:45:57.970Z,87.82
2019-04-06T06:47:38.254Z,64.60
2019-04-06T07:46:34.208Z,39.23
2019-04-06T07:48:12.918Z,32.05
2019-04-06T07:49:51.246Z,30.45
2019-04-06T07:51:30.513Z,34.45
2019-04-06T07:53:08.788Z,27.45
2019-04-06T07:54:48.873Z,28.55
2019-04-06T07:56:28.005Z,42.78
2019-04-06T07:58:07.966Z,32.50
2019-04-06T07:59:49.152Z,29.42
2019-04-06T08:01:34.745Z,28.07
2019-04-06T08:03:15.100Z,23.32
2019-04-06T08:04:55.143Z,26.00
2019-04-06T08:06:34.639Z,40.67
2019-04-06T08:08:16.638Z,31.12
2019-04-06T08:09:55.905Z,46.55
2019-04-06T08:11:33.929Z,25.82
2019-04-06T08:13:11.996Z,19.40
2019-04-06T08:14:53.082Z,22.85
2019-04-06T08:16:45.767Z,23.00
2019-04-06T08:18:45.165Z,15.00
2019-04-06T08:20:45.311Z,15.53
2019-04-06T08:22:43.858Z,22.02
2019-04-06T08:24:42.606Z,13.85
2019-04-06T08:26:43.141Z,23.85
2019-04-06T08:28:41.949Z,17.07
2019-04-06T08:30:45.419Z,11.90
2019-04-06T08:32:22.262Z,11.55
2019-04-06T08:34:01.418Z,17.37
2019-04-06T08:35:43.277Z,9.70
2019-04-06T08:37:22.421Z,15.30
2019-04-06T08:39:01.613Z,13.35
2019-04-06T08:41:03.008Z,11.05
2019-04-06T08:42:44.607Z,65.72
2019-04-06T08:44:45.051Z,91.05
2019-04-06T08:46:30.712Z,76.55
2019-04-06T08:48:16.044Z,247.50
2019-04-06T08:49:54.373Z,96.97
2019-04-06T08:51:33.831Z,174.12
2019-04-06T08:53:13.295Z,25.00
2019-04-06T08:54:54.306Z,139.80
2019-04-06T08:56:34.263Z,21.77
2019-04-06T10:08:01.750Z,31.05
2019-04-06T10:14:06.410Z,22.07
2019-04-06T10:16:07.066Z,19.37
2019-04-06T10:18:06.046Z,25.45
2019-04-06T10:19:55.182Z,23.12
2019-04-06T10:21:59.633Z,21.68
2019-04-06T10:23:49.539Z,53.52
2019-04-06T10:25:51.591Z,30.12
2019-04-06T10:28:03.809Z,19.37
2019-04-06T10:30:21.915Z,20.57
2019-04-06T10:34:12.695Z,17.17
2019-04-06T10:36:11.105Z,17.55
2019-04-06T10:38:13.950Z,17.23
2019-04-06T10:40:21.797Z,48.95
2019-04-06T10:42:06.872Z,18.87
2019-04-06T10:44:10.187Z,22.58
2019-04-06T10:46:02.375Z,22.77
2019-04-06T10:48:04.011Z,34.55
2019-04-06T10:49:53.845Z,22.17
2019-04-06T10:51:53.773Z,26.00
2019-04-06T10:53:36.781Z,27.77
2019-04-06T10:55:43.276Z,27.32
2019-04-06T10:57:23.398Z,27.52
2019-04-06T10:59:22.541Z,23.85
2019-04-06T11:01:09.574Z,25.20
2019-04-06T11:02:53.353Z,28.90
2019-04-06T11:08:31.369Z,20.52
2019-04-06T11:10:10.789Z,27.87
2019-04-06T11:11:52.250Z,18.50
2019-04-06T11:13:44.159Z,27.80
2019-04-06T11:15:44.260Z,20.55
2019-04-06T11:17:34.096Z,21.35
2019-04-06T11:19:14.594Z,30.02
2019-04-06T11:20:59.392Z,25.43
2019-04-06T11:22:42.225Z,18.98
2019-04-06T11:24:42.962Z,31.97
2019-04-06T11:26:28.207Z,32.78
2019-04-06T11:28:17.539Z,20.60
2019-04-06T11:30:16.683Z,25.55
2019-04-06T11:32:09.332Z,22.87
2019-04-06T11:34:09.298Z,17.07
2019-04-06T11:35:55.271Z,22.62
2019-04-06T11:37:43.842Z,21.55
2019-04-06T11:39:42.716Z,20.60
2019-04-06T11:41:26.943Z,25.02
2019-04-06T11:43:23.657Z,22.95
2019-04-06T11:45:04.319Z,23.85
2019-04-06T11:47:06.086Z,37.20
2019-04-06T11:49:04.456Z,18.70
2019-04-06T11:50:49.023Z,25.85
2019-04-06T11:52:44.916Z,18.55
2019-04-06T11:56:54.447Z,21.25
2019-04-06T11:58:50.792Z,25.08
2019-04-06T12:00:53.494Z,29.25
2019-04-06T12:02:38.837Z,33.73
2019-04-06T12:04:37.982Z,26.73
2019-04-06T12:06:21.719Z,43.05
2019-04-06T12:08:23.814Z,25.95
2019-04-06T12:10:18.433Z,28.62
2019-04-06T12:12:08.377Z,30.08
2019-04-06T12:13:55.453Z,22.62
2019-04-06T12:15:46.815Z,23.85
2019-04-06T12:17:43.637Z,31.70
2019-04-06T12:19:42.161Z,31.55
2019-04-06T12:21:28.771Z,56.85
2019-04-06T12:23:12.437Z,32.38
2019-04-06T12:24:56.095Z,22.82
2019-04-06T12:26:38.920Z,24.45
2019-04-06T12:28:24.650Z,21.25
2019-04-06T12:30:15.284Z,29.05
2019-04-06T12:31:59.183Z,24.57
2019-04-06T12:33:47.788Z,19.80
2019-04-06T12:37:37.236Z,35.30
2019-04-06T12:39:17.128Z,31.40
2019-04-06T12:41:08.602Z,31.95
2019-04-06T12:43:04.973Z,22.73
2019-04-06T12:44:46.659Z,35.95
2019-04-06T12:46:35.482Z,29.75
2019-04-06T12:48:16.179Z,26.85
2019-04-06T12:50:05.211Z,25.48
2019-04-06T12:51:53.059Z,27.17
2019-04-06T12:53:58.035Z,33.90
2019-04-06T12:55:46.301Z,21.77
2019-04-06T12:57:46.234Z,24.65
2019-04-06T12:59:30.619Z,24.47
2019-04-06T13:01:15.900Z,46.80
2019-04-06T13:03:17.060Z,36.40
2019-04-06T13:05:03.556Z,88.82
2019-04-06T13:07:01.334Z,19.20
2019-04-06T13:08:50.294Z,70.85
2019-04-06T13:10:32.868Z,33.60
2019-04-06T13:12:27.245Z,200.18
2019-04-06T13:14:12.000Z,51.30
2019-04-06T13:15:55.821Z,22.67
2019-04-06T13:17:36.740Z,37.20
2019-04-06T13:19:34.220Z,38.00
2019-04-06T13:21:25.176Z,39.92
2019-04-06T13:23:17.352Z,40.40
2019-04-06T13:25:00.768Z,21.23
2019-04-06T13:26:44.751Z,19.87
2019-04-06T13:28:41.177Z,30.90
2019-04-06T13:30:38.566Z,27.45
2019-04-06T13:32:36.146Z,31.42
2019-04-06T13:34:33.945Z,33.73
2019-04-06T14:10:16.645Z,73.10
2019-04-06T14:12:15.466Z,56.83
2019-04-06T14:14:14.040Z,28.20
2019-04-06T14:15:54.701Z,39.48
2019-04-06T14:17:58.867Z,38.23
2019-04-06T14:19:50.383Z,36.58
2019-04-06T14:21:32.164Z,30.88
2019-04-06T14:23:28.662Z,29.67
2019-04-06T14:25:14.171Z,31.65
2019-04-06T14:27:12.528Z,25.40
2019-04-06T14:29:02.697Z,19.30
2019-04-06T14:30:59.098Z,43.15
2019-04-06T14:32:52.221Z,27.90
2019-04-06T14:34:50.536Z,28.23
2019-04-06T14:36:46.344Z,37.15
2019-04-06T14:38:41.951Z,38.73
2019-04-06T14:40:42.455Z,48.65
2019-04-06T14:42:23.142Z,35.50
2019-04-06T14:44:15.435Z,67.67
2019-04-06T14:46:00.403Z,27.55
2019-04-06T14:47:44.926Z,42.62
2019-04-06T14:49:33.033Z,24.20
2019-04-06T14:51:14.386Z,26.12
2019-04-06T14:53:11.481Z,32.50
2019-04-06T14:54:52.244Z,33.02
2019-04-06T14:56:50.052Z,28.40
2019-04-06T14:58:44.585Z,26.23
2019-04-06T15:00:34.481Z,57.13
2019-04-06T15:02:19.886Z,23.40
2019-04-06T15:04:00.145Z,35.95
2019-04-06T15:05:52.539Z,74.12
2019-04-06T15:07:34.775Z,48.02
2019-04-06T15:09:24.418Z,32.65
2019-04-06T15:11:27.121Z,47.25
2019-04-06T15:13:14.858Z,58.05
2019-04-06T15:15:12.654Z,26.15
2019-04-06T15:16:53.694Z,31.87
2019-04-06T15:18:42.170Z,28.45
2019-04-06T15:20:21.574Z,23.38
2019-04-06T15:22:14.114Z,37.05
2019-04-06T15:24:06.257Z,53.30
2019-04-06T15:26:04.358Z,61.80
2019-04-06T15:28:05.476Z,82.90
2019-04-06T15:30:04.594Z,61.75
2019-04-06T15:32:03.469Z,93.87
2019-04-06T15:34:00.570Z,113.50
2019-04-06T15:35:56.819Z,51.92
2019-04-06T15:37:39.979Z,56.25
2019-04-06T15:39:19.357Z,54.67
2019-04-06T15:40:59.546Z,62.08
2019-04-06T15:42:40.380Z,80.12
2019-04-06T15:44:40.532Z,80.10
2019-04-06T15:46:24.510Z,103.15
2019-04-06T15:48:20.916Z,100.65
2019-04-06T15:50:10.141Z,202.22
2019-04-06T15:52:11.848Z,473.37
2019-04-06T15:53:50.185Z,355.10
2019-04-06T15:55:35.606Z,253.58
2019-04-06T15:57:30.563Z,193.10
2019-04-06T15:59:14.392Z,162.82
2019-04-06T16:01:10.456Z,152.78
2019-04-06T16:03:01.429Z,120.50
2019-04-06T16:04:40.535Z,122.30
2019-04-06T16:06:38.453Z,164.25
2019-04-06T16:08:17.754Z,128.18
2019-04-06T16:10:03.813Z,98.27
2019-04-06T16:12:00.254Z,217.72
2019-04-06T16:13:49.206Z,103.30
2019-04-06T16:15:29.691Z,103.20
2019-04-06T16:17:11.057Z,84.03
2019-04-06T16:18:52.092Z,93.33
2019-04-06T16:20:38.553Z,118.42
2019-04-06T16:22:18.640Z,239.95
2019-04-06T16:24:03.447Z,119.50
2019-04-06T16:25:56.295Z,122.07
2019-04-06T16:27:43.735Z,107.60
2019-04-06T16:29:29.140Z,132.50
2019-04-06T16:31:10.975Z,108.63
2019-04-06T16:32:51.335Z,166.92
2019-04-06T16:34:33.401Z,137.88
2019-04-06T16:36:24.854Z,115.85
2019-04-06T16:38:17.968Z,128.40
2019-04-06T16:39:58.146Z,122.80
2019-04-06T16:41:52.297Z,119.80
2019-04-06T16:43:35.320Z,127.65
2019-04-06T16:45:26.424Z,105.72
2019-04-06T16:47:19.913Z,107.03
2019-04-06T16:49:00.067Z,109.78
2019-04-06T16:50:44.474Z,101.97
2019-04-06T16:52:23.740Z,114.15
2019-04-06T16:54:22.454Z,88.78
2019-04-06T16:56:01.398Z,87.45
2019-04-06T16:57:41.157Z,90.17
2019-04-06T16:59:41.908Z,91.15
2019-04-06T17:01:38.543Z,106.87
2019-04-06T17:03:18.636Z,124.07
2019-04-06T17:05:15.891Z,88.62
2019-04-06T17:06:58.173Z,120.67
2019-04-06T17:08:46.186Z,107.70
2019-04-06T17:10:27.982Z,108.78
2019-04-06T17:12:24.816Z,101.10
2019-04-06T17:14:08.274Z,125.92
2019-04-06T17:16:11.508Z,110.92
2019-04-06T17:18:00.160Z,118.97
2019-04-06T17:19:48.248Z,116.93
2019-04-06T17:21:27.470Z,106.40
2019-04-06T17:23:07.393Z,99.42
2019-04-06T17:24:59.205Z,120.20
2019-04-06T17:26:38.841Z,111.17
2019-04-06T17:28:21.576Z,133.65
2019-04-06T17:32:00.988Z,106.85
2019-04-06T17:33:46.260Z,124.12
2019-04-06T17:35:34.622Z,109.40
2019-04-06T17:37:20.817Z,117.22
2019-04-06T17:41:04.667Z,96.92
2019-04-06T17:42:48.827Z,120.47
2019-04-06T17:44:30.006Z,100.22
2019-04-06T17:46:19.327Z,94.42
2019-04-06T17:48:01.231Z,97.97
2019-04-06T17:49:59.954Z,107.15
2019-04-06T17:52:07.500Z,98.05
2019-04-06T17:54:06.235Z,93.67
2019-04-06T17:56:06.298Z,104.53
2019-04-06T17:58:04.735Z,119.55
2019-04-06T17:59:48.739Z,138.00
2019-04-06T18:01:42.957Z,101.95
2019-04-06T18:03:34.999Z,118.65
2019-04-06T18:05:26.096Z,133.03
2019-04-06T18:07:26.550Z,143.10
2019-04-06T18:09:19.111Z,135.00
2019-04-06T18:11:01.097Z,176.07
2019-04-06T18:12:57.859Z,193.75
2019-04-06T18:14:38.690Z,150.32
2019-04-06T18:16:21.103Z,145.07
2019-04-06T18:18:01.441Z,138.40
2019-04-06T18:19:40.692Z,136.37
2019-04-06T18:21:19.947Z,136.10
2019-04-06T18:22:59.232Z,136.57
2019-04-06T18:24:39.004Z,123.60
2019-04-06T18:26:19.085Z,119.57
2019-04-06T18:27:58.583Z,124.58
2019-04-06T18:29:38.843Z,123.05
2019-04-06T18:31:24.937Z,120.67
2019-04-06T18:33:07.246Z,125.07
2019-04-06T18:34:48.079Z,132.30
2019-04-06T18:36:31.345Z,150.62
2019-04-06T18:38:13.582Z,141.15
2019-04-06T18:39:53.561Z,108.55
2019-04-06T18:41:33.609Z,122.92
2019-04-06T18:43:11.425Z,137.50
2019-04-06T18:44:55.498Z,143.07
2019-04-06T18:46:35.674Z,129.47
2019-04-06T18:48:18.130Z,116.95
2019-04-06T18:49:59.142Z,119.17
2019-04-06T18:51:38.595Z,150.27
2019-04-06T18:53:19.729Z,124.92
2019-04-06T18:55:01.060Z,129.87
2019-04-06T18:56:40.154Z,126.18
2019-04-06T18:58:18.945Z,145.38
2019-04-06T19:00:01.031Z,161.05
2019-04-06T19:01:42.660Z,145.65
2019-04-06T19:03:25.443Z,132.25
2019-04-06T19:05:10.186Z,126.33
2019-04-06T19:06:48.911Z,128.05
2019-04-06T19:08:35.881Z,128.90
2019-04-06T19:10:21.407Z,128.35
2019-04-06T19:12:02.065Z,121.60
2019-04-06T19:15:43.190Z,147.55
2019-04-06T19:17:23.556Z,145.25
2019-04-06T19:19:03.873Z,170.00
2019-04-06T19:20:42.625Z,178.35
2019-04-06T19:22:22.843Z,176.18
2019-04-06T19:24:02.421Z,162.70
2019-04-06T19:25:40.162Z,144.37
2019-04-06T19:27:20.497Z,161.20
2019-04-06T19:28:59.361Z,139.10
2019-04-06T19:30:37.390Z,140.85
2019-04-06T19:32:15.186Z,116.97
2019-04-06T19:33:53.471Z,123.25
2019-04-06T19:35:36.808Z,115.97
2019-04-06T19:37:16.287Z,96.07
2019-04-06T19:38:56.291Z,99.32
2019-04-06T19:40:37.180Z,117.50
2019-04-06T19:42:18.202Z,100.38
2019-04-06T19:43:58.211Z,88.33
2019-04-06T19:45:37.183Z,81.42
2019-04-06T19:47:17.123Z,74.82
2019-04-06T19:48:55.589Z,87.72
2019-04-06T19:50:35.338Z,84.70
2019-04-06T19:52:15.315Z,83.75
2019-04-06T19:53:53.619Z,67.00
2019-04-06T19:55:33.962Z,80.32
2019-04-06T19:57:13.579Z,63.75
2019-04-06T19:58:51.495Z,88.35
2019-04-06T20:00:33.751Z,76.20
2019-04-06T20:02:17.241Z,75.50
2019-04-06T20:04:00.162Z,69.77
2019-04-06T20:05:41.140Z,65.87
2019-04-06T20:07:22.886Z,63.58
2019-04-06T20:09:03.064Z,69.90
2019-04-06T20:10:44.189Z,70.42
2019-04-06T20:12:22.815Z,70.67
2019-04-06T20:14:02.763Z,71.02
2019-04-06T20:15:42.698Z,67.32
2019-04-06T20:17:21.000Z,69.87
2019-04-06T20:19:00.039Z,70.37
2019-04-06T20:20:38.869Z,78.28
2019-04-06T20:22:16.535Z,72.37
2019-04-06T20:23:54.351Z,78.05
2019-04-06T20:25:32.949Z,77.37
2019-04-06T20:27:12.520Z,91.15
2019-04-06T20:28:51.163Z,80.95
2019-04-06T20:30:29.768Z,91.75
2019-04-06T20:32:08.757Z,81.10
2019-04-06T20:33:53.384Z,95.70
2019-04-06T20:35:30.767Z,90.77
2019-04-06T20:37:09.686Z,82.42
2019-04-06T20:38:48.892Z,86.87
2019-04-06T20:40:29.851Z,89.80
2019-04-06T20:42:09.113Z,88.47
2019-04-06T20:43:50.025Z,95.87
2019-04-06T20:45:30.133Z,108.40
2019-04-06T20:47:09.396Z,93.82
2019-04-06T20:48:49.075Z,94.28
2019-04-06T20:50:29.904Z,92.12
2019-04-06T20:52:10.650Z,86.87
2019-04-06T20:53:50.876Z,90.65
2019-04-06T20:55:29.873Z,81.65
2019-04-06T20:57:09.667Z,80.90
2019-04-06T20:58:49.160Z,62.23
2019-04-06T21:00:28.803Z,62.30
2019-04-06T21:02:08.154Z,75.03
2019-04-06T21:03:59.264Z,59.67
2019-04-06T21:05:28.886Z,80.45
2019-04-06T21:07:08.985Z,61.18
2019-04-06T21:08:51.006Z,59.25
2019-04-06T21:10:31.590Z,52.55
2019-04-06T21:12:10.690Z,54.67
2019-04-06T21:13:50.300Z,57.53
2019-04-06T21:15:29.343Z,52.85
2019-04-06T21:17:09.296Z,49.08
2019-04-06T21:18:48.126Z,56.75
2019-04-06T21:20:27.763Z,48.20
2019-04-06T21:22:07.200Z,56.35
2019-04-06T21:23:47.176Z,44.35
2019-04-06T21:25:26.356Z,55.45
2019-04-06T21:27:06.297Z,46.25
2019-04-06T21:28:45.392Z,46.02
2019-04-06T21:30:24.513Z,47.88
2019-04-06T21:32:05.043Z,48.87
2019-04-06T21:33:46.301Z,42.53
2019-04-06T21:35:25.019Z,47.48
2019-04-06T21:37:04.185Z,47.70
2019-04-06T21:38:43.428Z,37.05
2019-04-06T21:40:23.036Z,44.85
2019-04-06T21:42:03.292Z,40.90
2019-04-06T21:43:43.794Z,45.70
2019-04-06T21:45:23.534Z,47.95
2019-04-06T21:47:03.327Z,51.58
2019-04-06T21:48:43.598Z,41.45
2019-04-06T21:50:22.073Z,36.13
2019-04-06T21:52:00.990Z,40.98
2019-04-06T21:53:41.153Z,45.30
2019-04-06T21:55:20.804Z,44.73
2019-04-06T21:57:00.358Z,38.83
2019-04-06T21:58:42.477Z,39.90
2019-04-06T22:00:24.353Z,40.43
2019-04-06T22:02:06.059Z,40.03
2019-04-06T22:03:46.202Z,39.50
2019-04-06T22:05:28.321Z,38.80
2019-04-06T22:07:08.741Z,42.40
2019-04-06T22:08:48.243Z,44.27
2019-04-06T22:10:31.511Z,36.80
2019-04-06T22:12:11.552Z,37.53
2019-04-06T22:13:51.307Z,35.28
2019-04-06T22:15:29.465Z,36.65
2019-04-06T22:17:10.877Z,38.20
2019-04-06T22:18:50.983Z,33.95
2019-04-06T22:20:29.662Z,34.98
2019-04-06T22:22:07.989Z,37.98
2019-04-06T22:23:47.704Z,39.40
2019-04-06T22:25:27.817Z,33.50
2019-04-06T22:27:07.645Z,32.55
2019-04-06T22:28:47.233Z,31.95
2019-04-06T22:30:26.837Z,35.65
2019-04-06T22:32:07.535Z,31.00
2019-04-06T22:33:48.403Z,35.73
2019-04-06T22:35:28.349Z,38.65
2019-04-06T22:37:07.477Z,36.33
2019-04-06T22:38:48.150Z,36.80
2019-04-06T22:40:26.696Z,34.15
2019-04-06T22:42:06.405Z,35.15
2019-04-06T22:43:46.837Z,43.48
2019-04-06T22:45:28.301Z,34.95
2019-04-06T22:47:08.143Z,41.05
2019-04-06T22:48:47.238Z,40.12
2019-04-06T22:50:27.068Z,37.38
2019-04-06T22:52:07.914Z,38.65
2019-04-06T22:53:47.700Z,34.38
2019-04-06T22:55:27.094Z,42.03
2019-04-06T22:57:06.996Z,35.00
2019-04-06T22:58:46.314Z,34.08
2019-04-06T23:00:27.488Z,42.27
2019-04-06T23:02:07.882Z,33.65
2019-04-06T23:03:57.148Z,36.17
2019-04-06T23:05:49.788Z,37.35
2019-04-06T23:07:29.234Z,39.58
2019-04-06T23:09:10.070Z,53.55
2019-04-06T23:10:50.371Z,42.98
2019-04-06T23:12:29.823Z,48.65
2019-04-06T23:14:10.061Z,36.77
2019-04-06T23:15:49.761Z,39.65
2019-04-06T23:17:29.582Z,45.17
2019-04-06T23:19:09.640Z,52.40
2019-04-06T23:20:48.584Z,40.98
2019-04-06T23:22:27.585Z,44.63
2019-04-06T23:24:06.681Z,46.30
2019-04-06T23:25:49.294Z,37.45
2019-04-06T23:27:28.552Z,40.20
2019-04-06T23:29:07.706Z,34.73
2019-04-06T23:30:48.003Z,36.08
2019-04-06T23:32:27.565Z,38.63
2019-04-06T23:34:07.893Z,35.83
2019-04-06T23:35:47.847Z,35.95
2019-04-06T23:37:27.570Z,43.10
2019-04-06T23:39:08.063Z,41.65
2019-04-06T23:40:49.733Z,41.10
2019-04-06T23:42:28.279Z,38.83
2019-04-06T23:44:08.279Z,35.03
2019-04-06T23:45:47.530Z,40.73
2019-04-06T23:47:25.731Z,42.20
2019-04-06T23:49:05.455Z,35.10
2019-04-06T23:50:45.140Z,28.70
2019-04-06T23:52:25.345Z,34.35
2019-04-06T23:54:05.509Z,41.48
2019-04-06T23:55:45.629Z,39.67
2019-04-06T23:57:25.790Z,39.40
2019-04-06T23:59:06.568Z,39.48
